createdAt,value
2023-03-28T00:01:39.837Z,1.38
2023-03-28T00:04:11.620Z,1.52
2023-03-28T00:06:39.771Z,1.10
2023-03-28T00:09:09.356Z,1.55
2023-03-28T00:11:37.121Z,1.20
2023-03-28T00:14:05.396Z,1.35
2023-03-28T00:16:36.167Z,1.27
2023-03-28T00:19:16.906Z,1.20
2023-03-28T00:21:47.495Z,1.27
2023-03-28T00:24:18.079Z,1.50
2023-03-28T00:26:49.584Z,1.63
2023-03-28T00:29:21.414Z,1.52
2023-03-28T00:31:50.454Z,1.15
2023-03-28T00:34:18.420Z,1.40
2023-03-28T00:36:46.402Z,1.25
2023-03-28T00:39:14.565Z,1.50
2023-03-28T00:41:44.453Z,1.30
2023-03-28T00:44:42.159Z,1.00
2023-03-28T00:47:39.013Z,1.33
2023-03-28T00:50:21.039Z,1.27
2023-03-28T00:52:57.675Z,1.15
2023-03-28T00:55:37.710Z,1.02
2023-03-28T00:58:11.292Z,1.50
2023-03-28T01:00:47.170Z,1.20
2023-03-28T01:03:18.920Z,1.15
2023-03-28T01:05:48.064Z,1.45
2023-03-28T01:08:21.241Z,0.90
2023-03-28T01:10:49.897Z,1.20
2023-03-28T01:13:24.061Z,1.17
2023-03-28T01:15:52.308Z,1.27
2023-03-28T01:18:22.956Z,1.50
2023-03-28T01:21:06.327Z,1.15
2023-03-28T01:24:12.737Z,1.70
2023-03-28T01:26:59.383Z,1.50
2023-03-28T01:29:46.237Z,1.30
2023-03-28T01:32:18.790Z,1.10
2023-03-28T01:35:42.009Z,1.40
2023-03-28T01:38:37.290Z,1.10
2023-03-28T01:41:42.337Z,1.45
2023-03-28T01:47:14.184Z,1.45
2023-03-28T01:49:49.986Z,1.05
2023-03-28T01:52:48.081Z,0.98
2023-03-28T01:55:30.324Z,1.23
2023-03-28T01:58:14.583Z,1.25
2023-03-28T02:00:58.957Z,1.10
2023-03-28T02:03:29.383Z,1.25
2023-03-28T02:06:05.362Z,0.90
2023-03-28T02:08:37.308Z,0.82
2023-03-28T02:11:28.532Z,1.50
2023-03-28T02:14:17.709Z,1.15
2023-03-28T02:16:50.179Z,1.02
2023-03-28T02:19:38.843Z,1.42
2023-03-28T02:22:31.218Z,1.10
2023-03-28T02:24:59.344Z,1.20
2023-03-28T02:27:52.810Z,0.82
2023-03-28T02:30:43.797Z,0.93
2023-03-28T02:33:53.591Z,1.00
2023-03-28T02:36:25.005Z,1.10
2023-03-28T02:39:14.099Z,1.45
2023-03-28T02:42:11.723Z,1.25
2023-03-28T02:45:11.216Z,1.02
2023-03-28T02:48:16.337Z,1.00
2023-03-28T02:51:04.330Z,0.93
2023-03-28T02:53:44.797Z,1.00
2023-03-28T02:56:22.052Z,1.02
2023-03-28T02:59:36.110Z,1.17
2023-03-28T03:02:04.838Z,1.15
2023-03-28T03:04:32.784Z,0.88
2023-03-28T03:07:02.673Z,1.10
2023-03-28T03:09:33.554Z,0.80
2023-03-28T03:12:01.461Z,1.20
2023-03-28T03:14:29.793Z,0.70
2023-03-28T03:17:17.410Z,0.85
2023-03-28T03:19:45.691Z,0.77
2023-03-28T03:22:21.343Z,0.70
2023-03-28T03:24:52.918Z,0.70
2023-03-28T03:27:22.107Z,0.90
2023-03-28T03:29:50.484Z,0.93
2023-03-28T03:32:21.714Z,1.25
2023-03-28T03:35:03.133Z,0.85
2023-03-28T03:37:31.692Z,0.75
2023-03-28T03:40:00.025Z,0.80
2023-03-28T03:42:34.154Z,0.90
2023-03-28T03:45:02.968Z,0.85
2023-03-28T03:47:32.278Z,0.85
2023-03-28T03:50:01.138Z,0.57
2023-03-28T03:52:30.039Z,0.80
2023-03-28T03:54:58.810Z,1.17
2023-03-28T03:57:27.849Z,0.55
2023-03-28T04:00:02.408Z,0.95
2023-03-28T04:02:34.875Z,0.85
2023-03-28T04:05:03.966Z,0.88
2023-03-28T04:07:49.686Z,0.85
2023-03-28T04:10:28.407Z,0.73
2023-03-28T04:12:56.893Z,0.75
2023-03-28T04:15:25.523Z,0.85
2023-03-28T04:20:56.724Z,0.90
2023-03-28T04:23:44.001Z,0.75
2023-03-28T04:26:38.242Z,0.55
2023-03-28T04:29:12.927Z,0.75
2023-03-28T04:31:50.508Z,0.57
2023-03-28T04:34:46.327Z,0.80
2023-03-28T04:37:20.586Z,0.60
2023-03-28T04:39:54.486Z,0.70
2023-03-28T04:42:41.690Z,1.35
2023-03-28T04:45:19.775Z,0.77
2023-03-28T04:47:49.803Z,1.17
2023-03-28T04:50:20.673Z,1.40
2023-03-28T04:52:49.049Z,1.38
2023-03-28T04:55:18.498Z,1.60
2023-03-28T04:57:49.215Z,2.00
2023-03-28T05:00:20.410Z,1.77
2023-03-28T05:03:05.271Z,1.75
2023-03-28T05:05:46.805Z,2.30
2023-03-28T05:08:17.532Z,1.95
2023-03-28T05:10:46.968Z,2.05
2023-03-28T05:13:16.484Z,2.15
2023-03-28T05:15:53.773Z,1.90
2023-03-28T05:18:42.408Z,1.52
2023-03-28T05:21:10.806Z,1.98
2023-03-28T05:23:39.281Z,1.48
2023-03-28T05:26:17.844Z,1.70
2023-03-28T05:28:46.575Z,1.40
2023-03-28T05:31:17.776Z,1.30
2023-03-28T05:33:51.067Z,1.30
2023-03-28T05:36:30.651Z,1.95
2023-03-28T05:38:59.045Z,1.92
2023-03-28T05:41:28.417Z,1.60
2023-03-28T05:43:56.972Z,1.38
2023-03-28T05:46:40.008Z,1.52
2023-03-28T05:49:08.564Z,2.15
2023-03-28T05:51:36.806Z,1.70
2023-03-28T05:54:05.363Z,1.50
2023-03-28T05:56:36.055Z,1.35
2023-03-28T05:59:04.486Z,1.25
2023-03-28T06:01:41.958Z,1.48
2023-03-28T06:06:40.422Z,1.67
2023-03-28T06:09:09.048Z,1.90
2023-03-28T06:11:49.202Z,1.33
2023-03-28T06:14:18.838Z,1.40
2023-03-28T06:16:48.452Z,1.45
2023-03-28T06:19:18.397Z,1.55
2023-03-28T06:21:54.095Z,1.38
2023-03-28T06:24:22.819Z,1.48
2023-03-28T06:26:51.921Z,1.70
2023-03-28T06:29:24.080Z,1.50
2023-03-28T06:32:00.887Z,1.65
2023-03-28T06:34:29.362Z,1.20
2023-03-28T06:37:02.193Z,1.65
2023-03-28T06:39:53.484Z,1.63
2023-03-28T06:42:22.005Z,1.33
2023-03-28T06:44:59.844Z,1.17
2023-03-28T06:47:38.931Z,1.55
2023-03-28T06:50:09.283Z,1.23
2023-03-28T06:52:51.605Z,1.10
2023-03-28T06:55:20.093Z,1.27
2023-03-28T06:57:48.845Z,1.30
2023-03-28T07:00:29.692Z,0.90
2023-03-28T07:03:30.582Z,1.70
2023-03-28T07:06:03.450Z,1.48
2023-03-28T07:08:31.989Z,1.23
2023-03-28T07:11:01.142Z,1.20
2023-03-28T07:13:30.650Z,1.25
2023-03-28T07:16:07.573Z,1.10
2023-03-28T07:18:36.486Z,1.23
2023-03-28T07:21:10.712Z,1.63
2023-03-28T07:23:40.491Z,1.27
2023-03-28T07:26:11.456Z,1.23
2023-03-28T07:28:41.287Z,0.90
2023-03-28T07:31:09.914Z,1.40
2023-03-28T07:33:39.627Z,0.95
2023-03-28T07:36:16.041Z,1.20
2023-03-28T07:38:49.180Z,1.10
2023-03-28T07:41:20.250Z,1.17
2023-03-28T07:43:48.888Z,1.27
2023-03-28T07:46:18.313Z,1.40
2023-03-28T07:48:46.920Z,1.13
2023-03-28T07:51:16.332Z,1.33
2023-03-28T07:53:45.447Z,1.10
2023-03-28T07:56:14.570Z,0.80
2023-03-28T07:59:02.331Z,0.88
2023-03-28T08:01:30.726Z,0.93
2023-03-28T08:04:04.033Z,1.08
2023-03-28T08:06:42.827Z,0.90
2023-03-28T08:09:13.286Z,1.00
2023-03-28T08:11:44.965Z,1.13
2023-03-28T08:14:16.090Z,1.00
2023-03-28T08:16:47.557Z,0.70
2023-03-28T08:19:16.427Z,1.00
2023-03-28T08:22:04.810Z,0.95
2023-03-28T08:24:40.726Z,1.20
2023-03-28T08:27:13.061Z,1.00
2023-03-28T08:29:45.461Z,1.30
2023-03-28T08:32:14.987Z,1.25
2023-03-28T08:34:43.447Z,1.02
2023-03-28T08:37:23.046Z,0.85
2023-03-28T08:39:51.770Z,0.90
2023-03-28T08:42:33.287Z,1.20
2023-03-28T08:45:26.246Z,0.77
2023-03-28T08:48:01.345Z,0.73
2023-03-28T08:50:55.049Z,1.00
2023-03-28T08:53:34.651Z,1.08
2023-03-28T08:56:07.218Z,1.30
2023-03-28T08:59:10.888Z,1.10
2023-03-28T09:01:40.090Z,1.02
2023-03-28T09:04:14.399Z,0.80
2023-03-28T09:06:46.572Z,1.30
2023-03-28T09:09:49.449Z,1.10
2023-03-28T09:13:04.907Z,1.23
2023-03-28T09:15:42.650Z,1.08
2023-03-28T09:18:39.047Z,1.33
2023-03-28T09:21:13.209Z,1.40
2023-03-28T09:23:58.406Z,1.00
2023-03-28T09:27:00.840Z,0.63
2023-03-28T09:29:33.292Z,1.10
2023-03-28T09:32:13.591Z,1.10
2023-03-28T09:34:52.092Z,1.20
2023-03-28T09:37:43.455Z,1.00
2023-03-28T09:40:23.126Z,1.10
2023-03-28T09:43:32.892Z,0.75
2023-03-28T09:46:34.265Z,1.15
2023-03-28T09:49:21.206Z,1.10
2023-03-28T09:51:57.925Z,1.13
2023-03-28T09:54:33.989Z,1.25
2023-03-28T09:57:06.606Z,1.38
2023-03-28T09:59:59.010Z,1.40
2023-03-28T10:02:42.688Z,1.50
2023-03-28T10:05:32.355Z,0.80
2023-03-28T10:08:39.206Z,1.23
2023-03-28T10:11:19.536Z,1.15
2023-03-28T10:13:49.942Z,1.27
2023-03-28T10:16:28.171Z,1.42
2023-03-28T10:19:24.945Z,1.13
2023-03-28T10:22:12.567Z,0.90
2023-03-28T10:24:48.034Z,1.00
2023-03-28T10:27:24.575Z,0.98
2023-03-28T10:29:56.612Z,1.20
2023-03-28T10:32:31.251Z,1.05
2023-03-28T10:35:31.320Z,1.50
2023-03-28T10:38:31.927Z,1.27
2023-03-28T10:41:25.363Z,1.17
2023-03-28T10:44:29.059Z,1.30
2023-03-28T10:47:04.969Z,1.38
2023-03-28T10:49:52.168Z,0.90
2023-03-28T10:52:34.649Z,0.90
2023-03-28T10:55:03.538Z,1.17
2023-03-28T10:58:28.492Z,1.30
2023-03-28T11:01:12.508Z,1.00
2023-03-28T11:06:38.188Z,1.20
2023-03-28T11:09:25.851Z,0.93
2023-03-28T11:12:57.292Z,1.20
2023-03-28T11:15:34.491Z,1.40
2023-03-28T11:18:29.894Z,1.00
2023-03-28T11:21:18.647Z,1.27
2023-03-28T11:23:54.087Z,1.00
2023-03-28T11:26:45.376Z,1.15
2023-03-28T11:29:43.599Z,1.33
2023-03-28T11:32:41.098Z,1.15
2023-03-28T11:35:18.789Z,1.23
2023-03-28T11:37:58.250Z,0.85
2023-03-28T11:40:30.972Z,1.42
2023-03-28T11:43:06.994Z,1.13
2023-03-28T11:48:44.966Z,1.35
2023-03-28T11:51:29.566Z,1.23
2023-03-28T11:54:17.770Z,1.25
2023-03-28T11:56:57.350Z,0.90
2023-03-28T11:59:51.929Z,0.88
2023-03-28T12:02:43.234Z,0.90
2023-03-28T12:05:26.882Z,1.10
2023-03-28T12:07:55.364Z,2.08
2023-03-28T12:10:36.886Z,1.92
2023-03-28T12:13:25.938Z,1.85
2023-03-28T12:16:24.426Z,2.05
2023-03-28T12:18:58.985Z,1.80
2023-03-28T12:21:52.085Z,2.00
2023-03-28T12:24:54.164Z,2.10
2023-03-28T12:28:04.484Z,2.05
2023-03-28T12:31:06.618Z,1.77
2023-03-28T12:33:51.929Z,1.65
2023-03-28T12:37:05.044Z,1.40
2023-03-28T12:39:45.611Z,1.60
2023-03-28T12:42:23.774Z,1.60
2023-03-28T12:44:59.604Z,1.85
2023-03-28T12:47:36.971Z,2.25
2023-03-28T12:50:45.362Z,1.65
2023-03-28T12:53:16.882Z,1.38
2023-03-28T12:55:48.508Z,1.80
2023-03-28T12:58:27.543Z,1.67
2023-03-28T13:01:27.865Z,1.50
2023-03-28T13:04:29.887Z,1.90
2023-03-28T13:07:53.685Z,1.50
2023-03-28T13:10:38.884Z,1.48
2023-03-28T13:13:22.165Z,1.48
2023-03-28T13:15:55.663Z,1.60
2023-03-28T13:18:31.835Z,1.73
2023-03-28T13:21:04.723Z,1.23
2023-03-28T13:23:36.973Z,1.60
2023-03-28T13:26:07.384Z,1.23
2023-03-28T13:28:47.150Z,1.42
2023-03-28T13:31:29.032Z,1.58
2023-03-28T13:34:03.446Z,1.52
2023-03-28T13:36:35.883Z,1.65
2023-03-28T13:39:22.012Z,1.00
2023-03-28T13:41:50.413Z,1.70
2023-03-28T13:44:56.727Z,1.60
2023-03-28T13:47:45.629Z,1.80
2023-03-28T13:50:29.794Z,1.42
2023-03-28T13:52:59.850Z,1.50
2023-03-28T13:55:28.587Z,1.50
2023-03-28T13:58:02.244Z,1.58
2023-03-28T14:00:31.449Z,1.40
2023-03-28T14:03:05.014Z,1.40
2023-03-28T14:05:35.851Z,1.60
2023-03-28T14:08:26.006Z,1.17
2023-03-28T14:10:57.210Z,1.48
2023-03-28T14:13:30.504Z,1.50
2023-03-28T14:15:58.957Z,1.60
2023-03-28T14:18:36.809Z,1.00
2023-03-28T14:21:08.013Z,1.80
2023-03-28T14:23:39.244Z,1.30
2023-03-28T14:26:17.208Z,1.35
2023-03-28T14:28:46.664Z,1.38
2023-03-28T14:31:29.960Z,1.30
2023-03-28T14:34:00.669Z,1.17
2023-03-28T14:36:31.242Z,1.40
2023-03-28T14:39:13.771Z,1.33
2023-03-28T14:41:43.696Z,1.23
2023-03-28T14:44:13.689Z,1.08
2023-03-28T14:46:42.891Z,1.60
2023-03-28T14:49:19.460Z,1.35
2023-03-28T14:51:53.929Z,1.20
2023-03-28T14:54:35.315Z,0.90
2023-03-28T14:57:05.934Z,1.40
2023-03-28T14:59:41.686Z,1.55
2023-03-28T15:02:25.164Z,1.20
2023-03-28T15:04:55.539Z,1.38
2023-03-28T15:07:28.516Z,1.35
2023-03-28T15:10:12.168Z,1.63
2023-03-28T15:12:51.049Z,1.40
2023-03-28T15:15:24.922Z,1.08
2023-03-28T15:17:56.689Z,1.05
2023-03-28T15:20:32.432Z,1.00
2023-03-28T15:23:04.331Z,1.30
2023-03-28T15:25:34.885Z,1.15
2023-03-28T15:28:07.129Z,0.90
2023-03-28T15:30:40.667Z,1.20
2023-03-28T15:35:45.554Z,1.30
2023-03-28T15:38:14.087Z,1.30
2023-03-28T15:40:45.567Z,1.52
2023-03-28T15:43:32.644Z,1.42
2023-03-28T15:46:22.352Z,1.80
2023-03-28T15:48:51.143Z,1.80
2023-03-28T15:51:20.164Z,1.38
2023-03-28T15:53:51.285Z,1.50
2023-03-28T15:56:32.726Z,1.35
2023-03-28T15:59:19.036Z,1.38
2023-03-28T16:01:49.162Z,1.40
2023-03-28T16:04:24.966Z,1.70
2023-03-28T16:07:13.641Z,1.55
2023-03-28T16:09:43.507Z,1.52
2023-03-28T16:12:16.171Z,1.70
2023-03-28T16:14:51.528Z,1.43
2023-03-28T16:17:33.039Z,1.70
2023-03-28T16:20:23.532Z,1.65
2023-03-28T16:22:52.255Z,1.60
2023-03-28T16:25:20.808Z,1.60
2023-03-28T16:27:49.447Z,1.67
2023-03-28T16:30:29.047Z,1.60
2023-03-28T16:32:57.268Z,1.83
2023-03-28T16:35:27.483Z,1.90
2023-03-28T16:37:56.246Z,1.60
2023-03-28T16:40:24.888Z,1.73
2023-03-28T16:42:53.521Z,2.00
2023-03-28T16:45:23.032Z,1.60
2023-03-28T16:47:52.769Z,1.27
2023-03-28T16:50:21.281Z,1.70
2023-03-28T16:52:49.762Z,1.65
2023-03-28T16:55:19.244Z,1.40
2023-03-28T16:57:47.701Z,1.65
2023-03-28T17:00:18.348Z,1.40
2023-03-28T17:02:47.941Z,1.90
2023-03-28T17:05:17.366Z,2.40
2023-03-28T17:07:45.844Z,2.42
2023-03-28T17:10:14.483Z,2.45
2023-03-28T17:12:42.644Z,2.28
2023-03-28T17:15:11.687Z,2.30
2023-03-28T17:17:40.039Z,2.08
2023-03-28T17:20:09.458Z,1.92
2023-03-28T17:22:37.924Z,2.47
2023-03-28T17:25:06.725Z,1.80
2023-03-28T17:27:35.525Z,1.85
2023-03-28T17:30:04.804Z,2.45
2023-03-28T17:32:33.396Z,1.65
2023-03-28T17:35:01.761Z,1.85
2023-03-28T17:37:30.645Z,2.35
2023-03-28T17:39:59.363Z,2.20
2023-03-28T17:42:27.925Z,2.00
2023-03-28T17:44:56.162Z,2.08
2023-03-28T17:47:24.508Z,2.00
2023-03-28T17:49:56.241Z,2.00
2023-03-28T17:52:24.810Z,1.80
2023-03-28T17:54:53.282Z,2.35
2023-03-28T17:57:21.924Z,2.15
2023-03-28T17:59:50.962Z,1.70
2023-03-28T18:02:19.302Z,2.20
2023-03-28T18:04:57.065Z,2.00
2023-03-28T18:07:29.442Z,1.47
2023-03-28T18:10:01.362Z,1.80
2023-03-28T18:12:29.762Z,2.05
2023-03-28T18:15:00.825Z,2.00
2023-03-28T18:17:29.953Z,1.92
2023-03-28T18:19:59.224Z,2.08
2023-03-28T18:22:27.844Z,1.88
2023-03-28T18:24:56.502Z,1.70
2023-03-28T18:27:24.723Z,2.03
2023-03-28T18:29:53.445Z,1.90
2023-03-28T18:32:23.152Z,1.70
2023-03-28T18:34:51.524Z,1.60
2023-03-28T18:37:19.934Z,1.88
2023-03-28T18:39:48.246Z,1.60
2023-03-28T18:42:16.474Z,1.98
2023-03-28T18:44:44.648Z,1.60
2023-03-28T18:47:12.967Z,2.00
2023-03-28T18:49:41.447Z,1.98
2023-03-28T18:52:10.886Z,1.50
2023-03-28T18:54:39.373Z,1.55
2023-03-28T18:57:07.833Z,1.80
2023-03-28T18:59:36.011Z,1.60
2023-03-28T19:02:04.766Z,1.48
2023-03-28T19:04:33.640Z,2.10
2023-03-28T19:07:02.500Z,1.77
2023-03-28T19:09:31.207Z,2.08
2023-03-28T19:12:00.975Z,2.13
2023-03-28T19:14:29.283Z,1.70
2023-03-28T19:16:57.721Z,1.77
2023-03-28T19:19:26.504Z,1.88
2023-03-28T19:21:55.685Z,1.70
2023-03-28T19:24:24.164Z,1.90
2023-03-28T19:26:53.526Z,2.00
2023-03-28T19:29:21.763Z,1.75
2023-03-28T19:31:52.325Z,1.80
2023-03-28T19:34:21.683Z,1.70
2023-03-28T19:36:50.174Z,1.60
2023-03-28T19:39:18.722Z,1.63
2023-03-28T19:41:46.980Z,1.90
2023-03-28T19:44:15.528Z,1.88
2023-03-28T19:46:43.819Z,2.10
2023-03-28T19:49:11.882Z,1.50
2023-03-28T19:51:40.012Z,1.83
2023-03-28T19:54:07.848Z,2.00
2023-03-28T19:56:36.191Z,1.58
2023-03-28T19:59:04.327Z,1.77
2023-03-28T20:01:32.758Z,1.90
2023-03-28T20:04:01.515Z,1.50
2023-03-28T20:06:30.343Z,1.30
2023-03-28T20:08:58.813Z,1.70
2023-03-28T20:11:28.254Z,1.80
2023-03-28T20:13:56.578Z,1.55
2023-03-28T20:16:25.133Z,1.70
2023-03-28T20:18:56.171Z,1.60
2023-03-28T20:21:24.570Z,1.65
2023-03-28T20:23:55.185Z,1.50
2023-03-28T20:26:27.445Z,1.83
2023-03-28T20:28:59.741Z,1.50
2023-03-28T20:31:29.214Z,1.67
2023-03-28T20:33:57.768Z,1.75
2023-03-28T20:36:26.326Z,1.55
2023-03-28T20:38:55.108Z,1.65
2023-03-28T20:41:24.408Z,1.65
2023-03-28T20:43:53.559Z,1.73
2023-03-28T20:46:22.800Z,1.92
2023-03-28T20:48:53.235Z,1.90
2023-03-28T20:51:24.172Z,1.70
2023-03-28T20:53:59.288Z,1.67
2023-03-28T20:56:29.841Z,1.90
2023-03-28T20:58:59.940Z,1.75
2023-03-28T21:01:30.813Z,1.50
2023-03-28T21:04:01.884Z,2.00
2023-03-28T21:06:36.321Z,1.80
2023-03-28T21:09:06.961Z,1.55
2023-03-28T21:11:37.291Z,1.70
2023-03-28T21:14:06.771Z,1.77
2023-03-28T21:16:37.531Z,1.73
2023-03-28T21:19:05.705Z,1.77
2023-03-28T21:21:34.344Z,1.83
2023-03-28T21:24:03.385Z,1.70
2023-03-28T21:26:32.272Z,1.90
2023-03-28T21:29:00.086Z,1.60
2023-03-28T21:31:29.393Z,2.00
2023-03-28T21:33:58.831Z,1.90
2023-03-28T21:36:27.935Z,1.80
2023-03-28T21:38:57.050Z,1.80
2023-03-28T21:41:27.432Z,1.55
2023-03-28T21:43:55.866Z,1.30
2023-03-28T21:46:23.739Z,1.80
2023-03-28T21:48:51.583Z,1.80
2023-03-28T21:51:20.057Z,1.85
2023-03-28T21:53:47.892Z,1.50
2023-03-28T21:56:16.861Z,1.75
2023-03-28T21:58:44.738Z,1.90
2023-03-28T22:01:14.487Z,1.83
2023-03-28T22:03:42.528Z,1.40
2023-03-28T22:06:10.940Z,1.40
2023-03-28T22:08:40.595Z,1.60
2023-03-28T22:11:16.810Z,1.50
2023-03-28T22:13:47.357Z,1.33
2023-03-28T22:16:15.671Z,1.55
2023-03-28T22:18:50.133Z,1.70
2023-03-28T22:21:18.265Z,1.70
2023-03-28T22:23:47.827Z,1.65
2023-03-28T22:26:16.183Z,1.80
2023-03-28T22:28:44.376Z,1.50
2023-03-28T22:31:12.920Z,1.75
2023-03-28T22:33:40.810Z,1.75
2023-03-28T22:36:09.850Z,1.85
2023-03-28T22:38:38.890Z,1.80
2023-03-28T22:41:07.811Z,1.70
2023-03-28T22:43:37.503Z,1.75
2023-03-28T22:46:06.203Z,1.90
2023-03-28T22:48:34.116Z,1.80
2023-03-28T22:51:02.376Z,1.67
2023-03-28T22:53:30.687Z,1.70
2023-03-28T22:55:58.860Z,1.70
2023-03-28T22:58:27.450Z,1.60
2023-03-28T23:00:55.384Z,2.05
2023-03-28T23:03:23.261Z,1.70
2023-03-28T23:05:51.788Z,1.80
2023-03-28T23:08:20.563Z,2.03
2023-03-28T23:10:48.713Z,1.70
2023-03-28T23:13:16.654Z,1.77
2023-03-28T23:15:45.115Z,2.00
2023-03-28T23:18:14.683Z,1.77
2023-03-28T23:20:43.022Z,1.65
2023-03-28T23:23:12.859Z,1.70
2023-03-28T23:25:40.603Z,1.80
2023-03-28T23:28:08.410Z,1.73
2023-03-28T23:30:38.202Z,1.80
2023-03-28T23:33:06.522Z,1.80
2023-03-28T23:35:34.342Z,1.73
2023-03-28T23:38:02.680Z,1.90
2023-03-28T23:40:30.491Z,1.65
2023-03-28T23:42:58.381Z,1.33
2023-03-28T23:45:26.465Z,1.90
2023-03-28T23:47:54.640Z,1.70
2023-03-28T23:50:22.453Z,1.50
2023-03-28T23:52:50.355Z,1.80
2023-03-28T23:55:18.273Z,2.00
2023-03-28T23:57:46.774Z,1.60
